createdAt,value
2023-01-29T00:04:35.719Z,24.75
2023-01-29T00:09:42.858Z,24.15
2023-01-29T00:14:51.160Z,25.06
2023-01-29T00:19:54.588Z,25.01
2023-01-29T00:24:59.413Z,26.24
2023-01-29T00:30:14.588Z,24.41
2023-01-29T00:35:22.864Z,24.82
2023-01-29T00:40:27.983Z,25.16
2023-01-29T00:45:33.661Z,25.08
2023-01-29T00:50:39.313Z,23.79
2023-01-29T00:55:47.148Z,25.93
2023-01-29T01:00:53.268Z,24.60
2023-01-29T01:06:06.477Z,20.23
2023-01-29T01:11:13.635Z,19.87
2023-01-29T01:16:20.293Z,19.71
2023-01-29T01:21:23.701Z,15.38
2023-01-29T01:26:28.939Z,11.63
2023-01-29T01:31:32.378Z,11.38
2023-01-29T01:36:37.795Z,10.42
2023-01-29T01:41:42.593Z,10.87
2023-01-29T01:46:45.993Z,10.92
2023-01-29T01:51:53.804Z,12.04
2023-01-29T01:57:09.280Z,11.06
2023-01-29T02:02:33.992Z,10.92
2023-01-29T02:07:59.791Z,12.85
2023-01-29T02:13:05.382Z,11.74
2023-01-29T02:18:09.094Z,12.22
2023-01-29T02:23:29.888Z,13.73
2023-01-29T02:28:40.104Z,13.27
2023-01-29T02:33:53.181Z,13.44
2023-01-29T02:39:02.463Z,14.69
2023-01-29T02:44:14.738Z,15.37
2023-01-29T02:49:24.617Z,15.48
2023-01-29T02:54:33.811Z,16.08
2023-01-29T02:59:43.276Z,15.64
2023-01-29T03:04:53.747Z,15.11
2023-01-29T03:09:58.773Z,15.43
2023-01-29T03:15:14.234Z,16.02
2023-01-29T03:20:26.578Z,16.50
2023-01-29T03:25:48.117Z,15.51
2023-01-29T03:31:17.332Z,15.14
2023-01-29T03:36:38.317Z,14.57
2023-01-29T03:41:47.709Z,17.03
2023-01-29T03:47:00.303Z,18.00
2023-01-29T03:52:09.903Z,19.00
2023-01-29T03:57:20.576Z,18.88
2023-01-29T04:02:32.175Z,16.64
2023-01-29T04:07:43.526Z,16.60
2023-01-29T04:12:50.608Z,17.28
2023-01-29T04:17:58.651Z,24.79
2023-01-29T04:23:22.397Z,17.02
2023-01-29T04:28:29.366Z,33.97
2023-01-29T04:33:40.182Z,22.41
2023-01-29T04:38:55.733Z,21.43
2023-01-29T04:44:07.375Z,22.49
2023-01-29T04:49:19.817Z,24.85
2023-01-29T04:54:35.461Z,26.70
2023-01-29T04:59:43.810Z,24.34
2023-01-29T05:04:51.364Z,24.01
2023-01-29T05:09:57.496Z,25.20
2023-01-29T05:15:03.818Z,29.91
2023-01-29T05:20:09.822Z,24.97
2023-01-29T05:25:31.123Z,24.67
2023-01-29T05:30:35.661Z,27.44
2023-01-29T05:35:41.726Z,30.18
2023-01-29T05:40:45.134Z,38.23
2023-01-29T05:45:53.585Z,30.21
2023-01-29T05:51:02.425Z,26.55
2023-01-29T05:56:06.514Z,23.96
2023-01-29T06:01:13.577Z,26.06
2023-01-29T06:06:18.589Z,22.65
2023-01-29T06:11:24.627Z,24.91
2023-01-29T06:16:28.070Z,25.09
2023-01-29T06:21:33.029Z,25.14
2023-01-29T06:26:36.393Z,25.97
2023-01-29T06:31:40.543Z,28.24
2023-01-29T06:36:45.337Z,29.02
2023-01-29T06:41:48.743Z,30.09
2023-01-29T06:46:52.135Z,28.15
2023-01-29T06:51:59.069Z,26.02
2023-01-29T06:57:02.501Z,27.84
2023-01-29T07:02:06.015Z,29.70
2023-01-29T07:07:13.896Z,27.56
2023-01-29T07:12:17.622Z,28.81
2023-01-29T07:17:23.153Z,26.64
2023-01-29T07:22:30.136Z,26.47
2023-01-29T07:27:33.767Z,25.42
2023-01-29T07:32:37.202Z,25.36
2023-01-29T07:37:44.114Z,32.92
2023-01-29T07:42:47.562Z,25.48
2023-01-29T07:47:53.629Z,27.90
2023-01-29T07:52:58.797Z,25.74
2023-01-29T07:58:04.041Z,27.18
2023-01-29T08:03:12.924Z,25.83
2023-01-29T08:08:20.392Z,26.44
2023-01-29T08:13:23.793Z,28.60
2023-01-29T08:18:27.773Z,31.11
2023-01-29T08:23:32.519Z,31.44
2023-01-29T08:28:38.655Z,29.00
2023-01-29T08:33:42.041Z,20.20
2023-01-29T08:38:46.736Z,18.79
2023-01-29T08:43:52.238Z,21.01
2023-01-29T08:48:55.639Z,29.35
2023-01-29T08:54:00.588Z,29.74
2023-01-29T08:59:04.067Z,26.16
2023-01-29T09:04:07.531Z,23.54
2023-01-29T09:09:13.007Z,23.88
2023-01-29T09:14:16.398Z,29.14
2023-01-29T09:19:19.832Z,28.09
2023-01-29T09:24:26.980Z,29.86
2023-01-29T09:29:30.435Z,33.82
2023-01-29T09:34:34.155Z,31.45
2023-01-29T09:39:38.908Z,33.00
2023-01-29T09:44:50.761Z,35.13
2023-01-29T09:50:00.867Z,31.47
2023-01-29T09:55:08.529Z,34.04
2023-01-29T10:00:16.802Z,45.40
2023-01-29T10:05:42.500Z,35.70
2023-01-29T10:10:52.783Z,36.10
2023-01-29T10:16:09.115Z,33.01
2023-01-29T10:21:31.505Z,33.81
2023-01-29T10:26:39.238Z,33.22
2023-01-29T10:31:44.217Z,43.15
2023-01-29T10:36:51.131Z,40.48
2023-01-29T10:42:05.788Z,33.44
2023-01-29T10:47:18.388Z,31.35
2023-01-29T10:52:30.820Z,34.02
2023-01-29T10:57:45.088Z,36.37
2023-01-29T11:02:53.030Z,35.37
2023-01-29T11:08:06.551Z,35.73
2023-01-29T11:13:15.765Z,49.97
2023-01-29T11:18:19.223Z,34.75
2023-01-29T11:23:28.352Z,34.60
2023-01-29T11:28:41.354Z,35.59
2023-01-29T11:33:47.637Z,35.47
2023-01-29T11:39:10.208Z,36.98
2023-01-29T11:44:21.371Z,43.18
2023-01-29T11:49:31.944Z,40.24
2023-01-29T11:54:41.422Z,38.12
2023-01-29T11:59:51.220Z,31.60
2023-01-29T12:04:57.161Z,29.08
2023-01-29T12:10:01.409Z,30.14
2023-01-29T12:15:16.197Z,33.07
2023-01-29T12:20:24.355Z,36.12
2023-01-29T12:25:36.903Z,33.32
2023-01-29T12:30:48.222Z,33.05
2023-01-29T12:35:57.598Z,33.48
2023-01-29T12:41:06.115Z,31.44
2023-01-29T12:46:21.570Z,36.54
2023-01-29T12:51:28.130Z,36.54
2023-01-29T12:56:36.947Z,37.33
2023-01-29T13:01:48.060Z,39.28
2023-01-29T13:06:59.371Z,38.60
2023-01-29T13:12:05.863Z,63.24
2023-01-29T13:17:17.287Z,52.89
2023-01-29T13:22:24.558Z,41.52
2023-01-29T13:27:29.187Z,39.58
2023-01-29T13:32:37.368Z,37.66
2023-01-29T13:37:44.341Z,34.84
2023-01-29T13:42:49.437Z,39.61
2023-01-29T13:47:54.359Z,40.13
2023-01-29T13:53:01.454Z,37.00
2023-01-29T13:58:05.144Z,46.15
2023-01-29T14:03:25.657Z,35.25
2023-01-29T14:08:40.830Z,37.61
2023-01-29T14:13:45.136Z,39.05
2023-01-29T14:18:50.814Z,44.59
2023-01-29T14:23:59.765Z,41.17
2023-01-29T14:29:06.373Z,41.54
2023-01-29T14:34:17.453Z,73.46
2023-01-29T14:39:29.866Z,41.03
2023-01-29T14:44:55.173Z,44.27
2023-01-29T14:49:59.656Z,55.70
2023-01-29T14:55:08.151Z,41.35
2023-01-29T15:00:19.999Z,37.99
2023-01-29T15:05:28.956Z,40.07
2023-01-29T15:10:40.104Z,36.16
2023-01-29T15:15:48.724Z,57.74
2023-01-29T15:21:04.721Z,36.93
2023-01-29T15:26:11.820Z,30.04
2023-01-29T15:31:19.435Z,29.61
2023-01-29T15:36:25.132Z,30.20
2023-01-29T15:41:29.802Z,28.83
2023-01-29T15:46:36.195Z,29.12
2023-01-29T15:51:40.059Z,28.08
2023-01-29T15:56:48.280Z,31.97
2023-01-29T16:01:51.659Z,27.82
2023-01-29T16:06:59.659Z,28.44
2023-01-29T16:12:05.454Z,38.16
2023-01-29T16:17:22.556Z,41.38
2023-01-29T16:22:27.320Z,42.61
2023-01-29T16:27:35.991Z,39.21
2023-01-29T16:32:44.769Z,36.57
2023-01-29T16:37:49.449Z,38.73
2023-01-29T16:43:12.127Z,39.53
2023-01-29T16:48:27.438Z,42.75
2023-01-29T16:53:30.875Z,40.71
2023-01-29T16:58:37.129Z,42.67
2023-01-29T17:03:43.863Z,42.80
2023-01-29T17:08:50.605Z,44.25
2023-01-29T17:13:57.235Z,43.86
2023-01-29T17:19:01.168Z,43.48
2023-01-29T17:24:07.910Z,53.06
2023-01-29T17:29:16.365Z,48.16
2023-01-29T17:34:19.789Z,43.51
2023-01-29T17:39:25.656Z,44.07
2023-01-29T17:44:30.439Z,44.27
2023-01-29T17:49:34.419Z,52.22
2023-01-29T17:54:38.031Z,46.43
2023-01-29T17:59:44.110Z,53.73
2023-01-29T18:04:51.015Z,43.10
2023-01-29T18:09:55.866Z,60.20
2023-01-29T18:15:05.517Z,63.25
2023-01-29T18:20:19.390Z,47.35
2023-01-29T18:25:24.813Z,52.89
2023-01-29T18:30:30.693Z,52.41
2023-01-29T18:35:34.177Z,49.33
2023-01-29T18:40:37.646Z,45.36
2023-01-29T18:45:42.501Z,43.10
2023-01-29T18:50:48.448Z,56.03
2023-01-29T18:55:55.984Z,46.65
2023-01-29T19:01:00.897Z,43.32
2023-01-29T19:06:08.165Z,45.80
2023-01-29T19:11:16.372Z,47.23
2023-01-29T19:16:22.248Z,59.73
2023-01-29T19:21:27.136Z,48.10
2023-01-29T19:26:34.183Z,46.44
2023-01-29T19:31:41.647Z,48.12
2023-01-29T19:36:47.532Z,49.69
2023-01-29T19:41:54.066Z,56.23
2023-01-29T19:46:59.158Z,50.78
2023-01-29T19:52:03.053Z,51.60
2023-01-29T19:57:07.609Z,53.78
2023-01-29T20:02:15.092Z,48.22
2023-01-29T20:07:19.947Z,48.14
2023-01-29T20:12:23.449Z,47.36
2023-01-29T20:17:28.258Z,50.17
2023-01-29T20:22:31.736Z,48.65
2023-01-29T20:27:35.203Z,48.37
2023-01-29T20:32:42.354Z,50.24
2023-01-29T20:37:45.843Z,49.13
2023-01-29T20:42:49.532Z,47.12
2023-01-29T20:47:59.107Z,63.48
2023-01-29T20:53:02.879Z,52.11
2023-01-29T20:58:06.923Z,52.40
2023-01-29T21:03:11.926Z,47.53
2023-01-29T21:08:15.440Z,45.43
2023-01-29T21:13:21.232Z,42.98
2023-01-29T21:18:26.464Z,41.43
2023-01-29T21:23:32.379Z,43.40
2023-01-29T21:28:35.875Z,46.09
2023-01-29T21:33:40.674Z,46.61
2023-01-29T21:38:44.073Z,45.67
2023-01-29T21:43:47.850Z,46.01
2023-01-29T21:48:52.571Z,49.36
2023-01-29T21:53:55.959Z,52.35
2023-01-29T21:59:02.502Z,50.01
2023-01-29T22:04:09.756Z,46.67
2023-01-29T22:09:13.558Z,46.25
2023-01-29T22:14:18.391Z,46.64
2023-01-29T22:19:25.572Z,46.35
2023-01-29T22:24:31.361Z,46.34
2023-01-29T22:29:34.851Z,46.71
2023-01-29T22:34:39.702Z,46.17
2023-01-29T22:39:45.276Z,44.97
2023-01-29T22:44:49.302Z,42.64
2023-01-29T22:49:54.043Z,37.36
2023-01-29T22:54:59.479Z,36.92
2023-01-29T23:00:03.907Z,36.84
2023-01-29T23:05:09.440Z,43.75
2023-01-29T23:10:14.678Z,47.42
2023-01-29T23:15:18.201Z,45.63
2023-01-29T23:20:23.054Z,44.74
2023-01-29T23:25:46.818Z,45.29
2023-01-29T23:30:52.241Z,44.19
2023-01-29T23:36:00.795Z,44.05
2023-01-29T23:41:04.329Z,55.08
2023-01-29T23:46:07.807Z,42.59
2023-01-29T23:51:12.623Z,38.64
2023-01-29T23:56:18.379Z,41.62
